ADDS METAR Data INFO
IDs: Format: Raw Decoded Include TAF

Data at: 2238 UTC 22 Aug 2017

KSEP 222235Z AUTO 16004KT 10SM CLR 34/16 A3002 RMK AO2 T03440161
KSEP 222215Z AUTO 14005KT 10SM SCT060 34/17 A3003 RMK AO2 T03420167
KSEP 222155Z AUTO 18003KT 10SM SCT060 34/18 A3004 RMK AO2 T03430178
KSEP 222135Z AUTO 18003KT 10SM SCT060 35/18 A3005 RMK AO2 T03460179
KSEP 222115Z AUTO 00000KT 10SM SCT065 34/17 A3006 RMK AO2 T03430172
KSEP 222055Z AUTO 08004KT 10SM SCT065 SCT080 35/18 A3006 RMK AO2 T03460178
KSEP 222035Z AUTO 00000KT 10SM SCT065 SCT080 33/18 A3007 RMK AO2 T03320175
KSEP 222015Z AUTO 12004KT 10SM SCT065 34/18 A3008 RMK AO2 T03420183
KSEP 221955Z AUTO 00000KT 10SM SCT065 SCT080 34/17 A3009 RMK AO2 T03390173
KSEP 221935Z AUTO 00000KT 10SM SCT065 34/18 A3009 RMK AO2 T03350177
KSEP 221915Z AUTO 00000KT 10SM SCT065 33/19 A3010 RMK AO2 T03310185
KSEP 221855Z AUTO 00000KT 10SM CLR 33/17 A3011 RMK AO2 T03320174
KSEP 221835Z AUTO 00000KT 10SM CLR 33/18 A3011 RMK AO2 T03320179
KSEP 221815Z AUTO 00000KT 10SM CLR 33/20 A3012 RMK AO2 T03260195
KSEP 221755Z AUTO 19004KT 10SM CLR 33/20 A3012 RMK AO2 T03260197 10326 20217
KSEP 221735Z AUTO 14003KT 10SM CLR 32/20 A3013 RMK AO2 T03210202
KSEP 221715Z AUTO 00000KT 10SM CLR 32/20 A3013 RMK AO2 T03160200
KSEP 221655Z AUTO 17005KT 10SM CLR 32/20 A3014 RMK AO2 T03150204
KSEP 221635Z AUTO 25003KT 10SM CLR 31/20 A3014 RMK AO2 T03090201
KSEP 221615Z AUTO 26004KT 10SM CLR 31/20 A3014 RMK AO2 T03050200
KSEP 221555Z AUTO 22004KT 10SM CLR 30/20 A3014 RMK AO2 T03000198
KSEP 221535Z AUTO 23004KT 10SM CLR 29/20 A3014 RMK AO2 T02940201
KSEP 221515Z AUTO 20004KT 10SM CLR 29/20 A3013 RMK AO2 T02880204
KSEP 221455Z AUTO 24006KT 10SM CLR 28/21 A3013 RMK AO2 T02780208
KSEP 221435Z AUTO 23004KT 10SM CLR 27/21 A3013 RMK AO2 T02680210
KSEP 221415Z AUTO 18003KT 10SM CLR 26/22 A3012 RMK AO2 T02560217
KSEP 221355Z AUTO 00000KT 10SM CLR 25/21 A3012 RMK AO2 T02460213
KSEP 221335Z AUTO 00000KT 10SM CLR 24/21 A3012 RMK AO2 T02360209
KSEP 221315Z AUTO 18003KT 10SM CLR 23/21 A3011 RMK AO2 T02270205
KSEP 221255Z AUTO 00000KT 10SM CLR 22/20 A3011 RMK AO2 T02240202
KSEP 221235Z AUTO 00000KT 10SM CLR 22/20 A3011 RMK AO2 T02200200
KSEP 221215Z AUTO 00000KT 10SM CLR 22/20 A3011 RMK AO2 T02180198
KSEP 221155Z AUTO 00000KT 10SM CLR 22/20 A3010 RMK AO2 T02170196 10236 20217
KSEP 221135Z AUTO 00000KT 10SM CLR 22/20 A3009 RMK AO2 T02200197
KSEP 221115Z AUTO 00000KT 10SM CLR 22/20 A3009 RMK AO2 T02210198
KSEP 221055Z AUTO 00000KT 10SM CLR 22/20 A3008 RMK AO2 T02200197
KSEP 221035Z AUTO 00000KT 10SM CLR 22/20 A3008 RMK AO2 T02200196
KSEP 221015Z AUTO 00000KT 10SM CLR 22/20 A3008 RMK AO2 T02220197
KSEP 220955Z AUTO 00000KT 10SM CLR 22/20 A3008 RMK AO2 T02230197
KSEP 220935Z AUTO 00000KT 10SM CLR 23/20 A3008 RMK AO2 T02250196
KSEP 220915Z AUTO 00000KT 10SM CLR 23/20 A3009 RMK AO2 T02250196
KSEP 220855Z AUTO 00000KT 10SM CLR 23/20 A3009 RMK AO2 T02250195
KSEP 220835Z AUTO 00000KT 10SM CLR 23/20 A3009 RMK AO2 T02270195
KSEP 220815Z AUTO 00000KT 10SM CLR 23/19 A3010 RMK AO2 T02300193
KSEP 220755Z AUTO 00000KT 10SM CLR 23/19 A3010 RMK AO2 T02300193
KSEP 220735Z AUTO 00000KT 10SM CLR 23/19 A3010 RMK AO2 T02300192
KSEP 220715Z AUTO 00000KT 10SM CLR 23/19 A3010 RMK AO2 T02320191
KSEP 220655Z AUTO 00000KT 10SM CLR 24/19 A3011 RMK AO2 T02350190
KSEP 220635Z AUTO 00000KT 10SM CLR 24/19 A3011 RMK AO2 T02360190
KSEP 220615Z AUTO 00000KT 10SM CLR 24/19 A3012 RMK AO2 T02350192
KSEP 220555Z AUTO 00000KT 10SM CLR 24/20 A3012 RMK AO2 T02360195 10320 20236 403330226
KSEP 220535Z AUTO 00000KT 10SM CLR 24/20 A3012 RMK AO2 T02400196
KSEP 220515Z AUTO 00000KT 10SM CLR 24/20 A3012 RMK AO2 T02430196
KSEP 220455Z AUTO 00000KT 10SM CLR 25/19 A3013 RMK AO2 T02480193
KSEP 220435Z AUTO 00000KT 10SM CLR 25/19 A3012 RMK AO2 T02520193
KSEP 220415Z AUTO 00000KT 10SM CLR 25/19 A3012 RMK AO2 T02540193
KSEP 220355Z AUTO 00000KT 10SM CLR 26/19 A3012 RMK AO2 T02570193
KSEP 220335Z AUTO 00000KT 10SM CLR 26/19 A3012 RMK AO2 T02610194
KSEP 220315Z AUTO 00000KT 10SM CLR 27/20 A3011 RMK AO2 T02650195
KSEP 220255Z AUTO 00000KT 10SM CLR 27/19 A3010 RMK AO2 T02700191
KSEP 220235Z AUTO 14004KT 10SM CLR 28/19 A3009 RMK AO2 T02750191
KSEP 220215Z AUTO 13005KT 10SM CLR 28/20 A3008 RMK AO2 T02760195
KSEP 220155Z AUTO 13004KT 10SM CLR 28/19 A3008 RMK AO2 T02800193
KSEP 220135Z AUTO 13004KT 10SM CLR 28/19 A3007 RMK AO2 T02820193
KSEP 220115Z AUTO 13005KT 10SM CLR 29/19 A3007 RMK AO2 T02900192
KSEP 220055Z AUTO 14005KT 10SM CLR 30/19 A3006 RMK AO2 T03000193
KSEP 220035Z AUTO 14005KT 10SM CLR 31/19 A3006 RMK AO2 T03080190
KSEP 220015Z AUTO 14007KT 10SM CLR 32/19 A3006 RMK AO2 T03150190
KSEP 212355Z AUTO 14007KT 10SM CLR 32/19 A3006 RMK AO2 T03210185 10333 20300
KSEP 212335Z AUTO 15006KT 10SM CLR 33/18 A3007 RMK AO2 T03250183
KSEP 212315Z AUTO 15008KT 10SM CLR 33/19 A3007 RMK AO2 T03280186
KSEP 212255Z AUTO 15007KT 10SM CLR 33/18 A3007 RMK AO2 T03300184
KSEP 212235Z AUTO 16008KT 10SM CLR 33/19 A3008 RMK AO2 T03300187
KSEP 212215Z AUTO 13007KT 10SM CLR 33/19 A3008 RMK AO2 T03310187
KSEP 212155Z AUTO 15006KT 10SM CLR 33/19 A3008 RMK AO2 T03300189
KSEP 212135Z AUTO 15007KT 10SM SCT055 33/19 A3009 RMK AO2 T03300186
KSEP 212115Z AUTO 17005KT CLR 33/19 A3009 RMK AO2 T03300188
KSEP 212055Z AUTO 15006KT SCT049 33/19 A3009 RMK AO2 T03270193
KSEP 212035Z AUTO 15006KT SCT049 33/20 A3010 RMK AO2 T03290198
KSEP 212015Z AUTO 16009KT 10SM CLR 33/19 A3011 RMK AO2 T03280194
KSEP 211955Z AUTO 14008KT 130V190 10SM CLR 32/19 A3011 RMK AO2 T03220191
KSEP 211935Z AUTO 13006KT 10SM CLR 32/19 A3012 RMK AO2 T03200191
KSEP 211915Z AUTO 12007KT 10SM CLR 32/19 A3012 RMK AO2 T03170193
KSEP 211855Z AUTO 13006KT 10SM CLR 31/19 A3012 RMK AO2 T03090192
KSEP 211835Z AUTO 14005KT 10SM CLR 30/19 A3012 RMK AO2 T03020187
KSEP 211815Z AUTO 15004KT 10SM CLR 30/19 A3012 RMK AO2 T03000188
KSEP 211755Z AUTO 14004KT 10SM CLR 30/19 A3013 RMK AO2 T03040188 10313 20226
KSEP 211735Z AUTO 16004KT 10SM CLR 31/20 A3013 RMK AO2 T03100196
KSEP 211715Z AUTO 17005KT 10SM CLR 31/20 A3014 RMK AO2 T03110197
KSEP 211655Z AUTO 17006KT 10SM CLR 31/20 A3013 RMK AO2 T03110196
KSEP 211635Z AUTO 20007KT 10SM CLR 31/19 A3013 RMK AO2 T03100194
KSEP 211615Z AUTO 18004KT 10SM CLR 31/19 A3014 RMK AO2 T03050193
KSEP 211555Z AUTO 19007KT 10SM CLR 30/19 A3013 RMK AO2 T03030193
KSEP 211535Z AUTO 21004KT 10SM CLR 30/19 A3013 RMK AO2 T02960191
KSEP 211515Z AUTO 22006KT 10SM CLR 29/19 A3013 RMK AO2 T02860191
KSEP 211455Z AUTO 23008KT 10SM CLR 28/20 A3013 RMK AO2 T02800196
KSEP 211435Z AUTO 22005KT 10SM CLR 27/20 A3013 RMK AO2 T02690197
KSEP 211415Z AUTO 20005KT 10SM CLR 26/20 A3013 RMK AO2 T02580201
KSEP 211355Z AUTO 18004KT 10SM CLR 25/20 A3013 RMK AO2 T02470200
KSEP 211335Z AUTO 19004KT 10SM CLR 24/20 A3013 RMK AO2 T02440199
KSEP 211315Z AUTO 00000KT 10SM CLR 24/20 A3012 RMK AO2 T02370198
KSEP 211255Z AUTO 00000KT 10SM CLR 23/20 A3011 RMK AO2 T02310196
KSEP 211235Z AUTO 00000KT 10SM CLR 23/19 A3011 RMK AO2 T02290193
KSEP 211215Z AUTO 00000KT 10SM CLR 23/19 A3010 RMK AO2 T02260191
KSEP 211155Z AUTO 00000KT 10SM CLR 23/19 A3010 RMK AO2 T02270191 10252 20227
KSEP 211135Z AUTO 00000KT 10SM CLR 23/19 A3010 RMK AO2 T02280193
KSEP 211115Z AUTO 00000KT 10SM CLR 23/20 A3010 RMK AO2 T02300195
KSEP 211055Z AUTO 00000KT 10SM CLR 23/20 A3010 RMK AO2 T02310195